Pagina principale
METAR-TAF:

METAR-TAF

Aeroporti :

Aeroporto di Bari-Palese

Bari, Italia

latitudine: 41-08N, longitudine: 016-47E, altezza: 34 m

Osservazione

Il bollettino è stato emesso 17 minuti fa, alle 07:50 UTC
Vento 11 kt da sud con raffiche fino a 21 kt, variando fra sud/sud-est e sud-ovest
Temperature 20°C
Umidità 78%
Pressione 1009 hPa
Visibilità 10 km o più
Nubi sparse ad un'altezza di 2000 ft

METAR: LIBD 270750Z 17011G21KT 150V220 9999 SCT020 20/16 Q1009

Ora: 10:07 (08:07 UTC)

Previsione

Il bollettino è stato emesso 3 ore e 7 minuti fa, alle 05:00 UTC
Previsione valida dal 27 alle 06 UTC al 28 alle 06 UTC
Vento 12 kt da sud-est
Visibilità 10 km o più
Nubi sparse ad un'altezza di 3000 ft
Temporaneamente
dal 27 alle 06 UTC al 27 alle 18 UTC
Visibilità: 4000 m
temporale, pioggia

TAF: LIBD 270500Z 2706/2806 14012KT 9999 SCT030 TEMPO 2706/2718 4000 TSRA

Osservazioni e previsioni meteorologiche di più di 4000 aeroporti (messaggi METAR e TAF).

Le stazioni disponibili sono rappresentate dai dischi gialli e rossi sulla carta.

Puntare il mouse per vedere il nome della stazione.

Clicca sopra per visualizzare le osservazioni e previsioni meteorologiche.

Per cambiare la mappa : fare clic sui pulsanti verdi con una croce nera per ingrandire, il pulsante verde con un trattino per diminuire, o sulla freccia verde per le mappe adiacenti.


METAR-TAF: